createdAt,value
2017-11-08T00:01:52.273Z,35.47
2017-11-08T00:04:19.794Z,36.43
2017-11-08T00:06:47.415Z,33.50
2017-11-08T00:09:14.975Z,34.43
2017-11-08T00:11:42.484Z,34.23
2017-11-08T00:14:10.021Z,32.23
2017-11-08T00:16:37.541Z,33.73
2017-11-08T00:19:05.101Z,33.23
2017-11-08T00:21:32.599Z,31.50
2017-11-08T00:24:00.114Z,30.93
2017-11-08T00:26:27.702Z,31.70
2017-11-08T00:28:55.235Z,30.83
2017-11-08T00:31:22.762Z,33.07
2017-11-08T00:33:50.314Z,33.93
2017-11-08T00:36:17.853Z,31.07
2017-11-08T00:38:45.385Z,31.07
2017-11-08T00:41:12.894Z,30.17
2017-11-08T00:43:40.421Z,29.57
2017-11-08T00:46:07.948Z,31.67
2017-11-08T00:48:35.488Z,29.17
2017-11-08T00:51:03.770Z,30.50
2017-11-08T00:53:32.053Z,31.07
2017-11-08T00:55:59.704Z,31.17
2017-11-08T00:58:27.210Z,30.23
2017-11-08T01:00:59.700Z,28.87
2017-11-08T01:03:27.193Z,30.47
2017-11-08T01:05:55.508Z,29.73
2017-11-08T01:08:23.063Z,31.60
2017-11-08T01:10:50.683Z,31.00
2017-11-08T01:13:18.969Z,29.30
2017-11-08T01:15:47.271Z,30.53
2017-11-08T01:18:14.808Z,29.27
2017-11-08T01:20:42.451Z,29.47
2017-11-08T01:23:09.966Z,32.43
2017-11-08T01:25:37.476Z,30.70
2017-11-08T01:28:05.789Z,31.00
2017-11-08T01:30:33.287Z,31.30
2017-11-08T01:33:00.843Z,30.50
2017-11-08T01:35:28.364Z,29.60
2017-11-08T01:37:55.898Z,30.13
2017-11-08T01:40:23.448Z,29.93
2017-11-08T01:42:50.981Z,29.43
2017-11-08T01:45:18.512Z,29.63
2017-11-08T01:47:46.061Z,28.60
2017-11-08T01:50:13.556Z,29.13
2017-11-08T01:52:41.267Z,30.20
2017-11-08T01:55:08.816Z,31.30
2017-11-08T01:57:37.082Z,28.93
2017-11-08T02:00:05.596Z,29.43
2017-11-08T02:02:33.101Z,29.10
2017-11-08T02:05:00.644Z,30.17
2017-11-08T02:07:28.181Z,27.43
2017-11-08T02:09:55.677Z,30.63
2017-11-08T02:12:23.190Z,29.90
2017-11-08T02:14:50.727Z,28.57
2017-11-08T02:17:19.031Z,26.80
2017-11-08T02:19:46.553Z,29.47
2017-11-08T02:22:14.882Z,28.27
2017-11-08T02:24:42.437Z,28.27
2017-11-08T02:27:09.963Z,25.67
2017-11-08T02:29:38.255Z,28.70
2017-11-08T02:32:06.027Z,27.00
2017-11-08T02:34:33.550Z,26.70
2017-11-08T02:37:01.852Z,27.43
2017-11-08T02:39:29.382Z,27.00
2017-11-08T02:41:57.706Z,27.10
2017-11-08T02:44:25.208Z,26.67
2017-11-08T02:46:58.686Z,25.23
2017-11-08T02:49:26.216Z,25.53
2017-11-08T02:51:53.784Z,24.57
2017-11-08T02:54:23.546Z,26.50
2017-11-08T02:56:51.248Z,26.07
2017-11-08T02:59:18.916Z,25.50
2017-11-08T03:01:47.259Z,24.63
2017-11-08T03:04:15.738Z,24.93
2017-11-08T03:06:44.752Z,25.20
2017-11-08T03:09:12.276Z,25.30
2017-11-08T03:11:39.827Z,27.10
2017-11-08T03:14:07.389Z,23.90
2017-11-08T03:16:34.961Z,24.10
2017-11-08T03:19:03.381Z,24.53
2017-11-08T03:21:30.918Z,24.67
2017-11-08T03:23:59.667Z,25.03
2017-11-08T03:26:27.211Z,23.77
2017-11-08T03:28:54.725Z,24.87
2017-11-08T03:31:23.002Z,25.67
2017-11-08T03:33:51.348Z,25.60
2017-11-08T03:36:18.977Z,24.47
2017-11-08T03:38:46.652Z,25.10
2017-11-08T03:41:14.198Z,26.10
2017-11-08T03:43:42.693Z,25.77
2017-11-08T03:46:10.525Z,24.40
2017-11-08T03:48:38.145Z,26.33
2017-11-08T03:51:05.731Z,26.80
2017-11-08T03:53:33.368Z,24.77
2017-11-08T03:56:01.678Z,26.37
2017-11-08T03:58:30.045Z,23.93
2017-11-08T04:00:58.474Z,25.40
2017-11-08T04:03:26.077Z,25.57
2017-11-08T04:05:54.023Z,25.70
2017-11-08T04:08:21.585Z,26.37
2017-11-08T04:10:49.189Z,25.50
2017-11-08T04:13:16.765Z,24.33
2017-11-08T04:15:44.756Z,25.30
2017-11-08T04:18:12.426Z,27.63
2017-11-08T04:20:40.088Z,24.73
2017-11-08T04:23:07.927Z,25.00
2017-11-08T04:25:35.564Z,27.03
2017-11-08T04:28:04.653Z,25.20
2017-11-08T04:30:32.346Z,24.20
2017-11-08T04:32:59.950Z,25.40
2017-11-08T04:35:27.513Z,25.50
2017-11-08T04:37:56.392Z,24.10
2017-11-08T04:40:24.046Z,24.57
2017-11-08T04:42:51.655Z,25.47
2017-11-08T04:45:20.022Z,23.37
2017-11-08T04:47:48.525Z,23.30
2017-11-08T04:50:16.193Z,22.70
2017-11-08T04:52:43.823Z,24.20
2017-11-08T04:55:12.334Z,24.00
2017-11-08T04:57:39.965Z,23.97
2017-11-08T05:00:08.687Z,24.90
2017-11-08T05:02:36.358Z,24.60
2017-11-08T05:05:05.063Z,23.33
2017-11-08T05:07:32.664Z,23.60
2017-11-08T05:10:01.114Z,23.90
2017-11-08T05:12:29.234Z,23.80
2017-11-08T05:14:57.694Z,24.77
2017-11-08T05:17:26.098Z,22.43
2017-11-08T05:19:53.777Z,24.47
2017-11-08T05:22:22.145Z,23.60
2017-11-08T05:24:49.803Z,21.87
2017-11-08T05:27:17.471Z,23.13
2017-11-08T05:29:45.090Z,23.77
2017-11-08T05:32:12.758Z,21.67
2017-11-08T05:34:40.416Z,23.77
2017-11-08T05:37:07.967Z,24.07
2017-11-08T05:39:35.780Z,23.37
2017-11-08T05:42:03.429Z,22.83
2017-11-08T05:44:31.872Z,24.67
2017-11-08T05:46:59.551Z,25.17
2017-11-08T05:49:27.077Z,23.43
2017-11-08T05:51:54.712Z,22.90
2017-11-08T05:54:22.833Z,23.60
2017-11-08T05:56:50.451Z,24.13
2017-11-08T05:59:18.788Z,22.77
2017-11-08T06:01:47.364Z,22.73
2017-11-08T06:04:15.806Z,22.43
2017-11-08T06:06:43.391Z,24.17
2017-11-08T06:09:11.136Z,22.53
2017-11-08T06:11:38.734Z,23.53
2017-11-08T06:14:06.316Z,22.63
2017-11-08T06:16:34.820Z,20.90
2017-11-08T06:19:02.462Z,22.90
2017-11-08T06:21:30.175Z,21.43
2017-11-08T06:23:57.795Z,22.20
2017-11-08T06:26:26.489Z,22.73
2017-11-08T06:28:54.061Z,24.50
2017-11-08T06:31:22.017Z,23.80
2017-11-08T06:33:49.941Z,21.87
2017-11-08T06:36:17.496Z,24.20
2017-11-08T06:38:45.155Z,26.30
2017-11-08T06:41:12.747Z,25.33
2017-11-08T06:43:41.029Z,27.33
2017-11-08T06:46:09.500Z,25.00
2017-11-08T06:48:37.944Z,26.03
2017-11-08T06:51:05.600Z,24.10
2017-11-08T06:53:33.339Z,25.50
2017-11-08T06:56:06.537Z,26.30
2017-11-08T06:58:34.187Z,26.00
2017-11-08T07:01:02.351Z,26.90
2017-11-08T07:03:29.868Z,27.40
2017-11-08T07:05:57.508Z,25.33
2017-11-08T07:08:25.030Z,25.47
2017-11-08T07:10:53.393Z,22.93
2017-11-08T07:13:20.946Z,26.37
2017-11-08T07:15:49.251Z,25.37
2017-11-08T07:18:16.907Z,25.30
2017-11-08T07:20:44.480Z,26.00
2017-11-08T07:23:12.087Z,24.93
2017-11-08T07:25:39.604Z,24.93
2017-11-08T07:28:07.257Z,27.43
2017-11-08T07:30:34.822Z,25.37
2017-11-08T07:33:02.380Z,26.20
2017-11-08T07:35:30.009Z,26.30
2017-11-08T07:37:57.670Z,25.10
2017-11-08T07:40:26.151Z,25.13
2017-11-08T07:42:54.580Z,26.13
2017-11-08T07:45:22.238Z,24.00
2017-11-08T07:47:49.756Z,27.10
2017-11-08T07:50:17.488Z,25.17
2017-11-08T07:52:45.915Z,25.67
2017-11-08T07:55:22.303Z,25.87
2017-11-08T07:57:49.931Z,24.00
2017-11-08T08:00:17.454Z,24.20
2017-11-08T08:02:45.011Z,25.07
2017-11-08T08:05:12.667Z,24.50
2017-11-08T08:07:42.012Z,24.20
2017-11-08T08:10:09.704Z,24.40
2017-11-08T08:12:37.344Z,24.63
2017-11-08T08:15:08.727Z,24.47
2017-11-08T08:17:36.258Z,23.90
2017-11-08T08:20:07.967Z,23.70
2017-11-08T08:22:35.589Z,22.60
2017-11-08T08:25:03.251Z,24.90
2017-11-08T08:27:31.684Z,23.70
2017-11-08T08:30:06.114Z,23.50
2017-11-08T08:32:34.528Z,23.83
2017-11-08T08:35:02.241Z,24.83
2017-11-08T08:37:29.865Z,23.70
2017-11-08T08:39:57.831Z,24.77
2017-11-08T08:42:25.335Z,23.73
2017-11-08T08:44:52.878Z,23.37
2017-11-08T08:47:20.471Z,23.77
2017-11-08T08:49:50.679Z,23.57
2017-11-08T08:52:18.243Z,23.27
2017-11-08T08:54:45.795Z,21.93
2017-11-08T08:57:13.393Z,23.90
2017-11-08T08:59:41.024Z,24.70
2017-11-08T09:02:12.612Z,24.63
2017-11-08T09:04:40.269Z,24.20
2017-11-08T09:07:09.665Z,23.97
2017-11-08T09:09:37.218Z,25.03
2017-11-08T09:12:04.987Z,24.90
2017-11-08T09:14:32.919Z,25.00
2017-11-08T09:17:01.632Z,25.00
2017-11-08T09:19:32.953Z,26.73
2017-11-08T09:22:00.956Z,25.83
2017-11-08T09:24:35.239Z,26.43
2017-11-08T09:27:03.815Z,25.23
2017-11-08T09:29:46.288Z,26.07
2017-11-08T09:34:59.683Z,26.40
2017-11-08T09:37:32.870Z,27.07
2017-11-08T09:40:00.437Z,25.70
2017-11-08T09:42:38.886Z,26.70
2017-11-08T09:45:07.279Z,27.40
2017-11-08T09:47:34.877Z,25.03
2017-11-08T09:50:02.605Z,26.87
2017-11-08T09:52:30.984Z,26.00
2017-11-08T09:54:58.589Z,25.67
2017-11-08T09:57:26.147Z,25.33
2017-11-08T09:59:53.799Z,26.67
2017-11-08T10:02:21.447Z,26.67
2017-11-08T10:04:49.820Z,26.73
2017-11-08T10:07:18.366Z,25.37
2017-11-08T10:09:51.558Z,26.73
2017-11-08T10:12:19.905Z,26.43
2017-11-08T10:14:47.613Z,26.20
2017-11-08T10:17:15.097Z,25.13
2017-11-08T10:19:43.453Z,26.30
2017-11-08T10:22:11.773Z,25.27
2017-11-08T10:24:43.313Z,26.67
2017-11-08T10:27:10.892Z,26.63
2017-11-08T10:29:38.494Z,26.30
2017-11-08T10:32:06.964Z,25.63
2017-11-08T10:34:34.556Z,28.03
2017-11-08T10:37:03.007Z,26.30
2017-11-08T10:39:31.379Z,25.80
2017-11-08T10:41:59.021Z,23.80
2017-11-08T10:44:26.619Z,24.60
2017-11-08T10:46:54.204Z,25.77
2017-11-08T10:49:21.870Z,24.20
2017-11-08T10:51:49.495Z,25.30
2017-11-08T10:54:17.083Z,24.77
2017-11-08T10:56:44.710Z,25.07
2017-11-08T10:59:17.840Z,24.20
2017-11-08T11:01:45.435Z,24.87
2017-11-08T11:04:13.052Z,26.10
2017-11-08T11:06:40.632Z,26.17
2017-11-08T11:09:08.229Z,25.00
2017-11-08T11:11:36.573Z,27.80
2017-11-08T11:14:09.731Z,23.90
2017-11-08T11:16:37.368Z,26.63
2017-11-08T11:19:12.418Z,24.73
2017-11-08T11:21:40.786Z,25.37
2017-11-08T11:24:13.153Z,26.57
2017-11-08T11:26:41.701Z,26.07
2017-11-08T11:29:12.009Z,24.60
2017-11-08T11:31:40.019Z,25.20
2017-11-08T11:34:07.529Z,25.53
2017-11-08T11:36:35.104Z,24.87
2017-11-08T11:39:02.682Z,25.30
2017-11-08T11:41:30.589Z,24.50
2017-11-08T11:43:58.972Z,24.70
2017-11-08T11:46:26.793Z,22.83
2017-11-08T11:51:44.232Z,24.90
2017-11-08T11:54:13.906Z,27.27
2017-11-08T11:56:42.464Z,25.90
2017-11-08T11:59:10.172Z,26.40
2017-11-08T12:01:38.535Z,27.20
2017-11-08T12:04:06.271Z,27.43
2017-11-08T12:06:36.160Z,25.83
2017-11-08T12:09:03.911Z,26.07
2017-11-08T12:11:32.216Z,27.60
2017-11-08T12:13:59.788Z,27.20
2017-11-08T12:16:27.551Z,24.97
2017-11-08T12:18:55.642Z,25.27
2017-11-08T12:21:23.313Z,24.30
2017-11-08T12:23:50.992Z,26.90
2017-11-08T12:26:20.937Z,27.07
2017-11-08T12:28:49.484Z,26.40
2017-11-08T12:31:17.836Z,26.03
2017-11-08T12:33:45.666Z,28.50
2017-11-08T12:36:14.444Z,27.17
2017-11-08T12:38:43.418Z,25.63
2017-11-08T12:41:11.211Z,26.73
2017-11-08T12:43:40.533Z,26.83
2017-11-08T12:46:08.147Z,28.43
2017-11-08T12:48:35.932Z,27.87
2017-11-08T12:51:03.665Z,27.20
2017-11-08T12:53:32.402Z,27.53
2017-11-08T12:56:00.054Z,27.13
2017-11-08T12:58:27.870Z,27.73
2017-11-08T13:00:55.455Z,29.23
2017-11-08T13:03:23.166Z,28.00
2017-11-08T13:05:56.631Z,27.77
2017-11-08T13:08:24.318Z,26.07
2017-11-08T13:10:57.732Z,29.00
2017-11-08T13:13:25.425Z,30.67
2017-11-08T13:15:52.971Z,29.17
2017-11-08T13:18:21.006Z,27.97
2017-11-08T13:20:49.767Z,29.40
2017-11-08T13:23:17.393Z,25.67
2017-11-08T13:25:45.825Z,28.40
2017-11-08T13:28:13.511Z,27.50
2017-11-08T13:30:41.266Z,28.23
2017-11-08T13:33:08.913Z,27.10
2017-11-08T13:35:36.585Z,28.10
2017-11-08T13:38:04.244Z,28.00
2017-11-08T13:40:32.001Z,28.53
2017-11-08T13:42:59.706Z,34.77
2017-11-08T13:45:28.203Z,33.60
2017-11-08T13:47:56.613Z,31.43
2017-11-08T13:50:24.992Z,29.30
2017-11-08T13:52:53.852Z,28.90
2017-11-08T13:55:21.451Z,28.10
2017-11-08T13:57:56.730Z,28.20
2017-11-08T14:00:25.201Z,26.73
2017-11-08T14:02:52.970Z,29.17
2017-11-08T14:05:20.633Z,26.37
2017-11-08T14:07:49.290Z,28.73
2017-11-08T14:10:16.836Z,26.60
2017-11-08T14:12:44.443Z,27.70
2017-11-08T14:15:13.115Z,27.47
2017-11-08T14:17:40.738Z,27.20
2017-11-08T14:20:09.288Z,24.60
2017-11-08T14:22:36.864Z,28.77
2017-11-08T14:25:09.650Z,29.17
2017-11-08T14:27:38.496Z,26.10
2017-11-08T14:30:07.932Z,27.30
2017-11-08T14:32:40.003Z,28.90
2017-11-08T14:35:09.265Z,26.97
2017-11-08T14:37:36.897Z,26.30
2017-11-08T14:40:05.712Z,26.63
2017-11-08T14:42:38.932Z,28.17
2017-11-08T14:45:08.106Z,27.87
2017-11-08T14:47:38.520Z,26.30
2017-11-08T14:50:08.121Z,29.27
2017-11-08T14:52:35.997Z,26.87
2017-11-08T14:55:06.752Z,28.00
2017-11-08T14:57:35.216Z,26.20
2017-11-08T15:00:03.028Z,26.60
2017-11-08T15:02:32.505Z,30.57
2017-11-08T15:05:00.146Z,27.20
2017-11-08T15:07:27.674Z,28.67
2017-11-08T15:09:56.438Z,28.17
2017-11-08T15:12:30.567Z,28.07
2017-11-08T15:14:58.921Z,26.33
2017-11-08T15:30:29.842Z,28.80
2017-11-08T15:32:58.159Z,27.90
2017-11-08T15:35:26.523Z,28.60
2017-11-08T15:37:54.279Z,29.80
2017-11-08T15:40:24.492Z,28.57
2017-11-08T15:42:54.911Z,30.60
2017-11-08T15:45:22.692Z,30.47
2017-11-08T15:47:51.205Z,28.43
2017-11-08T15:50:19.140Z,28.47
2017-11-08T15:52:49.264Z,27.70
2017-11-08T15:55:21.272Z,27.33
2017-11-08T15:57:50.040Z,27.50
2017-11-08T16:00:20.350Z,30.37
2017-11-08T16:02:51.663Z,30.67
2017-11-08T16:05:21.030Z,30.03
2017-11-08T16:07:48.735Z,27.53
2017-11-08T16:10:16.524Z,28.67
2017-11-08T16:12:44.974Z,28.80
2017-11-08T16:15:12.574Z,30.73
2017-11-08T16:17:40.222Z,28.90
2017-11-08T16:20:14.251Z,28.13
2017-11-08T16:22:43.257Z,28.93
2017-11-08T16:25:11.012Z,30.13
2017-11-08T16:27:40.879Z,28.70
2017-11-08T16:30:08.585Z,29.73
2017-11-08T16:32:36.269Z,29.73
2017-11-08T16:35:04.283Z,28.40
2017-11-08T16:47:18.193Z,29.70
2017-11-08T16:49:45.861Z,28.47
2017-11-08T16:52:13.394Z,30.50
2017-11-08T16:54:40.938Z,30.60
2017-11-08T16:57:08.595Z,29.93
2017-11-08T16:59:36.155Z,30.57
2017-11-08T17:02:03.681Z,30.83
2017-11-08T17:04:31.352Z,31.13
2017-11-08T17:06:59.695Z,29.97
2017-11-08T17:09:27.351Z,31.03
2017-11-08T17:11:54.939Z,30.23
2017-11-08T17:14:23.324Z,30.63
2017-11-08T17:16:51.806Z,31.00
2017-11-08T17:19:20.448Z,29.13
2017-11-08T17:21:48.036Z,29.27
2017-11-08T17:24:15.568Z,30.60
2017-11-08T17:26:43.153Z,31.98
2017-11-08T17:29:13.752Z,30.80
2017-11-08T17:31:41.398Z,31.30
2017-11-08T17:34:09.265Z,30.20
2017-11-08T17:36:36.823Z,31.13
2017-11-08T17:39:04.385Z,31.57
2017-11-08T17:41:32.692Z,31.73
2017-11-08T17:44:00.253Z,32.00
2017-11-08T17:46:28.323Z,31.77
2017-11-08T17:48:55.904Z,30.07
2017-11-08T17:51:23.433Z,30.50
2017-11-08T17:53:51.021Z,31.80
2017-11-08T17:56:18.553Z,31.30
2017-11-08T17:58:46.615Z,31.00
2017-11-08T18:01:14.946Z,31.70
2017-11-08T18:03:42.482Z,32.70
2017-11-08T18:06:09.998Z,31.53
2017-11-08T18:08:38.329Z,33.83
2017-11-08T18:11:05.997Z,32.80
2017-11-08T18:13:33.576Z,35.17
2017-11-08T18:16:01.296Z,33.77
2017-11-08T18:18:28.913Z,35.20
2017-11-08T18:20:57.047Z,33.17
2017-11-08T18:23:24.552Z,35.87
2017-11-08T18:25:52.069Z,33.17
2017-11-08T18:28:19.659Z,34.47
2017-11-08T18:30:47.267Z,35.90
2017-11-08T18:33:14.844Z,37.57
2017-11-08T18:35:42.373Z,38.20
2017-11-08T18:38:09.954Z,40.20
2017-11-08T18:40:37.508Z,36.80
2017-11-08T18:43:05.089Z,36.10
2017-11-08T18:45:32.600Z,38.90
2017-11-08T18:48:00.127Z,36.63
2017-11-08T18:50:27.688Z,36.10
2017-11-08T18:52:55.442Z,38.37
2017-11-08T18:55:22.954Z,36.20
2017-11-08T18:57:50.504Z,39.77
2017-11-08T19:00:18.911Z,39.63
2017-11-08T19:02:46.409Z,38.07
2017-11-08T19:05:14.487Z,36.63
2017-11-08T19:07:42.768Z,38.67
2017-11-08T19:10:11.107Z,35.97
2017-11-08T19:12:38.651Z,38.87
2017-11-08T19:15:06.959Z,38.67
2017-11-08T19:17:34.474Z,44.20
2017-11-08T19:20:02.066Z,45.60
2017-11-08T19:22:29.580Z,40.93
2017-11-08T19:24:57.153Z,39.17
2017-11-08T19:27:24.677Z,40.87
2017-11-08T19:29:52.290Z,39.60
2017-11-08T19:32:19.819Z,38.37
2017-11-08T19:34:47.409Z,36.03
2017-11-08T19:37:14.948Z,36.10
2017-11-08T19:39:42.642Z,37.40
2017-11-08T19:42:10.206Z,36.97
2017-11-08T19:44:37.719Z,38.17
2017-11-08T19:47:05.302Z,38.63
2017-11-08T19:49:32.855Z,38.10
2017-11-08T19:52:00.380Z,38.17
2017-11-08T19:54:27.993Z,38.47
2017-11-08T19:56:55.534Z,37.33
2017-11-08T19:59:23.065Z,38.60
2017-11-08T20:01:51.397Z,41.47
2017-11-08T20:04:18.958Z,40.70
2017-11-08T20:06:46.487Z,38.57
2017-11-08T20:09:14.165Z,38.17
2017-11-08T20:11:41.725Z,41.93
2017-11-08T20:14:09.273Z,39.53
2017-11-08T20:16:36.835Z,39.97
2017-11-08T20:19:04.401Z,39.53
2017-11-08T20:21:32.034Z,41.80
2017-11-08T20:24:00.372Z,42.43
2017-11-08T20:26:27.875Z,40.93
2017-11-08T20:28:56.166Z,43.23
2017-11-08T20:31:23.749Z,40.60
2017-11-08T20:33:51.271Z,40.27
2017-11-08T20:36:18.787Z,40.70
2017-11-08T20:38:46.358Z,41.70
2017-11-08T20:41:13.888Z,40.30
2017-11-08T20:43:41.424Z,37.87
2017-11-08T20:46:08.996Z,41.40
2017-11-08T20:48:36.607Z,39.27
2017-11-08T20:51:04.131Z,40.43
2017-11-08T20:53:31.684Z,39.33
2017-11-08T20:55:59.289Z,39.00
2017-11-08T20:58:26.847Z,40.00
2017-11-08T21:00:54.376Z,40.00
2017-11-08T21:03:21.941Z,38.93
2017-11-08T21:05:54.164Z,39.80
2017-11-08T21:08:21.710Z,39.30
2017-11-08T21:10:49.417Z,37.27
2017-11-08T21:13:17.093Z,38.73
2017-11-08T21:15:44.727Z,40.07
2017-11-08T21:18:12.603Z,40.80
2017-11-08T21:20:40.225Z,38.43
2017-11-08T21:23:07.768Z,39.30
2017-11-08T21:25:35.519Z,40.10
2017-11-08T21:28:03.148Z,41.33
2017-11-08T21:30:30.732Z,40.00
2017-11-08T21:32:58.898Z,40.70
2017-11-08T21:35:26.603Z,40.50
2017-11-08T21:37:54.167Z,41.20
2017-11-08T21:40:21.669Z,40.93
2017-11-08T21:42:49.181Z,40.17
2017-11-08T21:45:17.511Z,41.40
2017-11-08T21:47:45.098Z,39.87
2017-11-08T21:50:12.663Z,42.73
2017-11-08T21:52:40.209Z,40.93
2017-11-08T21:55:07.801Z,41.67
2017-11-08T21:57:35.375Z,42.60
2017-11-08T22:00:02.904Z,40.60
2017-11-08T22:02:30.706Z,43.47
2017-11-08T22:04:58.232Z,42.33
2017-11-08T22:07:26.520Z,43.70
2017-11-08T22:09:54.179Z,42.10
2017-11-08T22:12:21.744Z,41.90
2017-11-08T22:14:50.012Z,42.33
2017-11-08T22:17:18.006Z,44.67
2017-11-08T22:19:45.539Z,37.10
2017-11-08T22:22:13.048Z,35.97
2017-11-08T22:24:40.620Z,33.10
2017-11-08T22:27:08.164Z,29.77
2017-11-08T22:29:35.807Z,27.90
2017-11-08T22:32:03.355Z,28.90
2017-11-08T22:34:33.605Z,26.13
2017-11-08T22:37:01.289Z,27.67
2017-11-08T22:39:28.810Z,27.40
2017-11-08T22:41:56.351Z,27.07
2017-11-08T22:44:23.905Z,26.80
2017-11-08T22:46:52.170Z,27.37
2017-11-08T22:49:19.674Z,27.43
2017-11-08T22:51:47.435Z,26.70
2017-11-08T22:54:15.007Z,25.33
2017-11-08T22:56:42.611Z,26.07
2017-11-08T22:59:10.144Z,28.40
2017-11-08T23:01:37.653Z,31.53
2017-11-08T23:04:05.218Z,29.73
2017-11-08T23:06:32.744Z,28.90
2017-11-08T23:09:00.270Z,27.50
2017-11-08T23:11:27.990Z,28.20
2017-11-08T23:14:06.924Z,27.47
2017-11-08T23:16:34.507Z,26.33
2017-11-08T23:19:02.013Z,29.40
2017-11-08T23:21:29.580Z,27.43
2017-11-08T23:23:57.101Z,26.37
2017-11-08T23:26:24.679Z,29.40
2017-11-08T23:28:52.208Z,27.93
2017-11-08T23:31:19.741Z,27.63
2017-11-08T23:33:47.274Z,28.20
2017-11-08T23:36:14.804Z,29.00
2017-11-08T23:38:42.355Z,30.07
2017-11-08T23:41:09.870Z,28.33
2017-11-08T23:43:38.154Z,28.20
2017-11-08T23:46:05.716Z,30.00
2017-11-08T23:48:33.228Z,27.10
2017-11-08T23:51:00.774Z,27.80
2017-11-08T23:53:28.326Z,26.27
2017-11-08T23:55:57.377Z,25.27
2017-11-08T23:58:25.787Z,25.83
